createdAt,value
2018-05-08T00:00:08.605Z,81.26
2018-05-08T00:01:08.823Z,80.69
2018-05-08T00:02:08.653Z,80.30
2018-05-08T00:03:08.686Z,80.02
2018-05-08T00:04:08.746Z,79.93
2018-05-08T00:05:08.753Z,79.77
2018-05-08T00:06:08.786Z,79.20
2018-05-08T00:07:08.821Z,79.29
2018-05-08T00:08:08.855Z,79.20
2018-05-08T00:09:08.889Z,79.20
2018-05-08T00:10:09.247Z,79.29
2018-05-08T00:11:08.955Z,79.68
2018-05-08T00:12:08.991Z,79.58
2018-05-08T00:13:09.021Z,80.16
2018-05-08T00:14:09.063Z,80.16
2018-05-08T00:15:09.090Z,79.83
2018-05-08T00:16:09.123Z,80.06
2018-05-08T00:17:09.161Z,80.06
2018-05-08T00:18:09.194Z,80.88
2018-05-08T00:19:09.225Z,81.84
2018-05-08T00:20:09.257Z,82.22
2018-05-08T00:21:09.292Z,83.17
2018-05-08T00:22:09.326Z,83.13
2018-05-08T00:23:09.358Z,83.51
2018-05-08T00:24:09.392Z,83.61
2018-05-08T00:25:09.426Z,83.80
2018-05-08T00:26:09.460Z,84.09
2018-05-08T00:27:09.494Z,84.09
2018-05-08T00:28:09.528Z,84.28
2018-05-08T00:29:09.563Z,84.56
2018-05-08T00:30:09.595Z,84.38
2018-05-08T00:31:09.629Z,84.95
2018-05-08T00:32:09.663Z,85.14
2018-05-08T00:33:09.696Z,85.14
2018-05-08T00:34:09.731Z,84.76
2018-05-08T00:35:09.763Z,84.95
2018-05-08T00:36:09.797Z,84.95
2018-05-08T00:37:09.831Z,84.38
2018-05-08T00:38:09.865Z,84.28
2018-05-08T00:39:10.101Z,84.38
2018-05-08T00:40:09.932Z,84.56
2018-05-08T00:41:09.965Z,84.56
2018-05-08T00:42:10.001Z,84.38
2018-05-08T00:43:10.034Z,84.76
2018-05-08T00:44:10.069Z,84.66
2018-05-08T00:45:10.100Z,85.24
2018-05-08T00:46:10.134Z,85.58
2018-05-08T00:47:10.167Z,85.05
2018-05-08T00:48:10.202Z,85.10
2018-05-08T00:49:10.236Z,85.19
2018-05-08T00:50:10.268Z,84.76
2018-05-08T00:51:10.303Z,85.00
2018-05-08T00:52:10.359Z,85.58
2018-05-08T00:53:10.371Z,85.67
2018-05-08T00:54:10.403Z,85.29
2018-05-08T00:55:10.437Z,85.38
2018-05-08T00:56:10.492Z,85.48
2018-05-08T00:57:10.505Z,85.38
2018-05-08T00:58:10.538Z,85.58
2018-05-08T00:59:10.571Z,86.34
2018-05-08T01:00:10.610Z,86.63
2018-05-08T01:01:10.638Z,86.43
2018-05-08T01:02:10.672Z,86.53
2018-05-08T01:03:10.705Z,87.10
2018-05-08T01:04:10.738Z,87.01
2018-05-08T01:05:10.974Z,87.20
2018-05-08T01:06:10.806Z,86.72
2018-05-08T01:07:10.840Z,86.82
2018-05-08T01:08:10.874Z,87.20
2018-05-08T01:09:10.907Z,86.53
2018-05-08T01:10:10.940Z,87.01
2018-05-08T01:11:10.974Z,88.06
2018-05-08T01:12:11.007Z,87.58
2018-05-08T01:13:11.043Z,87.68
2018-05-08T01:14:11.074Z,88.25
2018-05-08T01:15:11.108Z,87.54
2018-05-08T01:16:11.141Z,87.54
2018-05-08T01:17:11.175Z,87.73
2018-05-08T01:18:11.209Z,88.20
2018-05-08T01:19:11.241Z,88.11
2018-05-08T01:20:11.275Z,88.20
2018-05-08T01:21:11.309Z,88.87
2018-05-08T01:22:11.346Z,89.06
2018-05-08T01:23:11.375Z,88.68
2018-05-08T01:24:11.409Z,89.54
2018-05-08T01:25:11.443Z,89.92
2018-05-08T01:26:11.474Z,89.35
2018-05-08T01:27:11.509Z,89.45
2018-05-08T01:28:11.542Z,89.64
2018-05-08T01:29:11.581Z,88.97
2018-05-08T01:30:11.608Z,89.16
2018-05-08T01:31:11.642Z,89.73
2018-05-08T01:32:11.674Z,90.78
2018-05-08T01:33:11.708Z,90.83
2018-05-08T01:34:11.739Z,90.83
2018-05-08T01:35:11.781Z,91.12
2018-05-08T01:36:11.807Z,91.78
2018-05-08T01:37:11.840Z,91.50
2018-05-08T01:38:11.872Z,91.41
2018-05-08T01:39:11.904Z,91.98
2018-05-08T01:40:11.938Z,92.55
2018-05-08T01:41:11.972Z,92.55
2018-05-08T01:42:12.004Z,92.07
2018-05-08T01:43:12.051Z,92.46
2018-05-08T01:44:12.070Z,92.83
2018-05-08T01:45:12.104Z,91.98
2018-05-08T01:46:12.136Z,91.98
2018-05-08T01:47:12.169Z,92.17
2018-05-08T01:48:12.202Z,93.22
2018-05-08T01:49:12.235Z,93.36
2018-05-08T01:50:12.267Z,94.03
2018-05-08T01:51:12.300Z,94.03
2018-05-08T01:52:12.333Z,94.22
2018-05-08T01:53:12.367Z,94.70
2018-05-08T01:54:12.399Z,94.32
2018-05-08T01:55:12.474Z,94.32
2018-05-08T01:56:12.467Z,94.70
2018-05-08T01:57:12.498Z,94.79
2018-05-08T01:58:12.532Z,94.60
2018-05-08T01:59:12.562Z,94.60
2018-05-08T02:00:12.596Z,94.51
2018-05-08T02:01:12.630Z,94.79
2018-05-08T02:02:12.661Z,94.60
2018-05-08T02:03:12.697Z,95.08
2018-05-08T02:04:12.729Z,94.79
2018-05-08T02:05:12.760Z,95.46
2018-05-08T02:06:12.792Z,95.08
2018-05-08T02:07:12.830Z,95.46
2018-05-08T02:08:12.858Z,96.32
2018-05-08T02:09:12.891Z,96.03
2018-05-08T02:10:12.924Z,96.41
2018-05-08T02:11:12.956Z,96.03
2018-05-08T02:12:12.987Z,95.94
2018-05-08T02:13:13.021Z,95.94
2018-05-08T02:14:13.052Z,96.13
2018-05-08T02:15:13.084Z,96.22
2018-05-08T02:16:13.118Z,96.03
2018-05-08T02:17:13.151Z,96.22
2018-05-08T02:18:13.183Z,95.94
2018-05-08T02:19:13.214Z,96.22
2018-05-08T02:20:13.251Z,96.03
2018-05-08T02:21:13.285Z,95.37
2018-05-08T02:22:13.313Z,96.03
2018-05-08T02:23:13.345Z,96.13
2018-05-08T02:24:13.380Z,96.51
2018-05-08T02:25:13.410Z,96.13
2018-05-08T02:26:13.442Z,96.46
2018-05-08T02:27:13.475Z,97.13
2018-05-08T02:28:13.507Z,97.41
2018-05-08T02:29:13.540Z,97.32
2018-05-08T02:30:13.571Z,97.70
2018-05-08T02:31:13.603Z,97.70
2018-05-08T02:32:13.635Z,97.99
2018-05-08T02:33:13.669Z,97.89
2018-05-08T02:34:13.703Z,97.89
2018-05-08T02:35:13.732Z,97.80
2018-05-08T02:36:13.766Z,98.27
2018-05-08T02:37:13.798Z,97.99
2018-05-08T02:38:13.829Z,97.51
2018-05-08T02:39:13.862Z,98.27
2018-05-08T02:40:13.894Z,98.27
2018-05-08T02:41:13.925Z,99.04
2018-05-08T02:42:13.959Z,99.80
2018-05-08T02:43:13.991Z,99.99
2018-05-08T02:44:14.022Z,99.04
2018-05-08T02:45:14.055Z,99.13
2018-05-08T02:46:14.086Z,99.04
2018-05-08T02:47:14.120Z,98.94
2018-05-08T02:48:14.153Z,99.13
2018-05-08T02:49:14.184Z,99.99
2018-05-08T02:50:14.215Z,99.99
2018-05-08T02:51:14.250Z,99.99
2018-05-08T02:52:14.280Z,99.99
2018-05-08T02:53:14.312Z,99.99
2018-05-08T02:54:14.344Z,99.99
2018-05-08T02:55:14.376Z,99.99
2018-05-08T02:56:14.407Z,99.99
2018-05-08T02:57:14.439Z,99.99
2018-05-08T02:58:14.471Z,99.99
2018-05-08T02:59:14.505Z,99.41
2018-05-08T03:00:14.537Z,99.13
2018-05-08T03:01:14.584Z,99.22
2018-05-08T03:02:14.600Z,99.22
2018-05-08T03:03:14.633Z,99.13
2018-05-08T03:04:14.667Z,99.18
2018-05-08T03:05:14.701Z,99.08
2018-05-08T03:06:14.728Z,98.94
2018-05-08T03:07:14.762Z,98.94
2018-05-08T03:08:14.793Z,99.70
2018-05-08T03:09:14.825Z,99.41
2018-05-08T03:10:14.858Z,99.99
2018-05-08T03:11:14.892Z,99.22
2018-05-08T03:12:14.922Z,99.89
2018-05-08T03:13:14.960Z,99.99
2018-05-08T03:14:14.986Z,99.99
2018-05-08T03:15:15.018Z,99.99
2018-05-08T03:16:15.050Z,99.99
2018-05-08T03:17:15.082Z,99.99
2018-05-08T03:18:15.113Z,99.99
2018-05-08T03:19:15.151Z,99.99
2018-05-08T03:20:15.178Z,99.99
2018-05-08T03:21:15.210Z,99.99
2018-05-08T03:22:15.268Z,99.99
2018-05-08T03:23:15.273Z,99.99
2018-05-08T03:24:15.305Z,99.99
2018-05-08T03:25:15.338Z,99.99
2018-05-08T03:26:15.368Z,99.99
2018-05-08T03:27:15.404Z,99.99
2018-05-08T03:28:15.433Z,99.99
2018-05-08T03:29:15.465Z,99.99
2018-05-08T03:30:15.496Z,99.99
2018-05-08T03:31:15.533Z,99.99
2018-05-08T03:32:15.564Z,99.99
2018-05-08T03:33:15.593Z,99.99
2018-05-08T03:34:15.623Z,99.99
2018-05-08T03:35:15.655Z,99.99
2018-05-08T03:36:15.689Z,99.99
2018-05-08T03:37:15.722Z,99.99
2018-05-08T03:38:15.751Z,99.99
2018-05-08T03:39:15.785Z,99.99
2018-05-08T03:40:15.821Z,99.99
2018-05-08T03:41:15.849Z,99.99
2018-05-08T03:42:15.880Z,99.99
2018-05-08T03:43:15.913Z,99.99
2018-05-08T03:44:15.945Z,99.99
2018-05-08T03:45:15.976Z,99.99
2018-05-08T03:46:16.009Z,99.99
2018-05-08T03:47:16.041Z,99.99
2018-05-08T03:48:16.074Z,99.99
2018-05-08T03:49:16.105Z,99.99
2018-05-08T03:50:16.139Z,99.99
2018-05-08T03:51:16.168Z,99.99
2018-05-08T03:52:16.200Z,99.99
2018-05-08T03:53:16.234Z,99.99
2018-05-08T03:54:16.264Z,99.99
2018-05-08T03:55:16.296Z,99.99
2018-05-08T03:56:16.328Z,99.99
2018-05-08T03:57:16.362Z,99.99
2018-05-08T03:58:16.392Z,99.99
2018-05-08T03:59:16.424Z,99.99
2018-05-08T04:00:16.456Z,99.60
2018-05-08T04:01:16.489Z,99.89
2018-05-08T04:02:16.520Z,99.89
2018-05-08T04:03:16.552Z,99.99
2018-05-08T04:04:16.584Z,99.99
2018-05-08T04:05:16.616Z,99.99
2018-05-08T04:06:16.647Z,99.99
2018-05-08T04:07:16.680Z,99.99
2018-05-08T04:08:16.795Z,99.99
2018-05-08T04:09:16.743Z,99.99
2018-05-08T04:10:16.782Z,99.99
2018-05-08T04:11:16.807Z,99.80
2018-05-08T04:12:16.840Z,99.99
2018-05-08T04:13:16.871Z,99.99
2018-05-08T04:14:16.907Z,99.85
2018-05-08T04:15:16.937Z,99.46
2018-05-08T04:16:16.975Z,98.99
2018-05-08T04:17:17.001Z,99.27
2018-05-08T04:18:17.032Z,98.80
2018-05-08T04:19:17.064Z,98.80
2018-05-08T04:20:17.097Z,98.70
2018-05-08T04:21:17.129Z,99.66
2018-05-08T04:22:17.160Z,99.99
2018-05-08T04:23:17.192Z,99.99
2018-05-08T04:24:17.225Z,99.99
2018-05-08T04:25:17.257Z,99.99
2018-05-08T04:26:17.288Z,99.99
2018-05-08T04:27:17.321Z,99.99
2018-05-08T04:28:17.355Z,99.99
2018-05-08T04:29:17.386Z,99.75
2018-05-08T04:30:17.416Z,99.27
2018-05-08T04:31:17.458Z,98.51
2018-05-08T04:32:17.481Z,97.46
2018-05-08T04:33:17.514Z,97.66
2018-05-08T04:34:17.545Z,97.13
2018-05-08T04:35:17.579Z,97.56
2018-05-08T04:36:17.611Z,96.94
2018-05-08T04:37:17.643Z,96.94
2018-05-08T04:38:17.674Z,96.84
2018-05-08T04:39:17.709Z,96.17
2018-05-08T04:40:17.740Z,96.17
2018-05-08T04:41:17.775Z,95.41
2018-05-08T04:42:17.807Z,95.79
2018-05-08T04:43:17.837Z,95.32
2018-05-08T04:44:17.870Z,95.79
2018-05-08T04:45:17.903Z,95.79
2018-05-08T04:46:17.934Z,94.93
2018-05-08T04:47:17.969Z,95.03
2018-05-08T04:48:18.000Z,95.70
2018-05-08T04:49:18.032Z,95.22
2018-05-08T04:50:18.065Z,95.36
2018-05-08T04:51:18.100Z,94.98
2018-05-08T04:52:18.131Z,94.51
2018-05-08T04:53:18.165Z,95.08
2018-05-08T04:54:18.196Z,94.60
2018-05-08T04:55:18.228Z,94.12
2018-05-08T04:56:18.262Z,93.84
2018-05-08T04:57:18.294Z,93.55
2018-05-08T04:58:18.326Z,92.50
2018-05-08T04:59:18.363Z,91.78
2018-05-08T05:00:18.393Z,91.40
2018-05-08T05:01:18.426Z,91.30
2018-05-08T05:02:18.460Z,90.83
2018-05-08T05:03:18.491Z,90.25
2018-05-08T05:04:18.526Z,90.30
2018-05-08T05:05:18.556Z,90.20
2018-05-08T05:06:18.590Z,89.63
2018-05-08T05:07:18.622Z,89.06
2018-05-08T05:08:18.655Z,88.87
2018-05-08T05:09:18.689Z,88.48
2018-05-08T05:10:18.722Z,87.91
2018-05-08T05:11:18.756Z,87.76
2018-05-08T05:12:18.788Z,87.48
2018-05-08T05:13:18.827Z,87.57
2018-05-08T05:14:18.857Z,87.09
2018-05-08T05:15:18.887Z,87.09
2018-05-08T05:16:18.921Z,86.52
2018-05-08T05:17:18.955Z,87.09
2018-05-08T05:18:18.986Z,86.90
2018-05-08T05:19:19.021Z,87.19
2018-05-08T05:20:19.055Z,87.09
2018-05-08T05:21:19.092Z,86.61
2018-05-08T05:22:19.121Z,85.47
2018-05-08T05:23:19.156Z,85.66
2018-05-08T05:24:19.190Z,85.03
2018-05-08T05:25:19.220Z,85.32
2018-05-08T05:26:19.255Z,86.47
2018-05-08T05:27:19.288Z,86.47
2018-05-08T05:28:19.323Z,85.22
2018-05-08T05:29:19.356Z,85.41
2018-05-08T05:30:19.389Z,85.22
2018-05-08T05:31:19.426Z,84.75
2018-05-08T05:32:19.457Z,84.65
2018-05-08T05:33:19.491Z,84.36
2018-05-08T05:34:19.524Z,84.36
2018-05-08T05:35:19.558Z,84.08
2018-05-08T05:36:19.593Z,84.27
2018-05-08T05:37:19.627Z,83.69
2018-05-08T05:38:19.660Z,83.45
2018-05-08T05:39:19.699Z,83.40
2018-05-08T05:40:19.728Z,83.26
2018-05-08T05:41:19.761Z,83.64
2018-05-08T05:42:19.796Z,83.16
2018-05-08T05:43:19.830Z,82.40
2018-05-08T05:44:19.867Z,81.82
2018-05-08T05:45:19.898Z,82.68
2018-05-08T05:46:19.932Z,82.11
2018-05-08T05:47:19.967Z,82.78
2018-05-08T05:48:20.001Z,82.06
2018-05-08T05:49:20.036Z,82.43
2018-05-08T05:50:20.070Z,82.43
2018-05-08T05:51:20.103Z,81.86
2018-05-08T05:52:20.139Z,81.67
2018-05-08T05:53:20.189Z,81.48
2018-05-08T05:54:20.210Z,81.67
2018-05-08T05:55:20.243Z,81.48
2018-05-08T05:56:20.276Z,81.57
2018-05-08T05:57:20.310Z,81.04
2018-05-08T05:58:20.345Z,80.56
2018-05-08T05:59:20.379Z,80.47
2018-05-08T06:00:20.413Z,80.56
2018-05-08T06:01:20.449Z,80.47
2018-05-08T06:02:20.483Z,80.76
2018-05-08T06:03:20.517Z,80.27
2018-05-08T06:04:20.552Z,79.51
2018-05-08T06:05:20.588Z,79.60
2018-05-08T06:06:20.635Z,79.13
2018-05-08T06:07:20.656Z,78.45
2018-05-08T06:08:20.691Z,77.40
2018-05-08T06:09:20.726Z,77.69
2018-05-08T06:10:20.761Z,77.31
2018-05-08T06:11:20.795Z,77.63
2018-05-08T06:12:20.830Z,77.34
2018-05-08T06:13:20.866Z,76.67
2018-05-08T06:14:20.900Z,76.67
2018-05-08T06:15:20.937Z,76.67
2018-05-08T06:16:20.970Z,75.90
2018-05-08T06:17:21.006Z,76.57
2018-05-08T06:18:21.039Z,76.10
2018-05-08T06:19:21.076Z,75.71
2018-05-08T06:20:21.205Z,76.14
2018-05-08T06:21:21.146Z,75.56
2018-05-08T06:22:21.181Z,74.79
2018-05-08T06:23:21.215Z,74.41
2018-05-08T06:24:21.252Z,73.45
2018-05-08T06:25:21.289Z,74.60
2018-05-08T06:26:21.323Z,75.08
2018-05-08T06:27:21.357Z,74.79
2018-05-08T06:28:21.392Z,74.69
2018-05-08T06:29:21.429Z,75.27
2018-05-08T06:30:21.462Z,75.18
2018-05-08T06:31:21.501Z,74.69
2018-05-08T06:32:21.535Z,74.54
2018-05-08T06:33:21.570Z,74.16
2018-05-08T06:34:21.607Z,73.77
2018-05-08T06:35:21.642Z,73.30
2018-05-08T06:36:21.677Z,73.30
2018-05-08T06:37:21.714Z,73.39
2018-05-08T06:38:21.757Z,73.39
2018-05-08T06:39:21.785Z,73.04
2018-05-08T06:40:21.822Z,72.66
2018-05-08T06:41:21.858Z,72.66
2018-05-08T06:42:21.893Z,71.98
2018-05-08T06:43:21.928Z,71.89
2018-05-08T06:44:22.007Z,71.51
2018-05-08T06:45:22.001Z,70.68
2018-05-08T06:46:22.038Z,70.68
2018-05-08T06:47:22.073Z,66.93
2018-05-08T06:48:22.108Z,68.76
2018-05-08T06:49:22.147Z,67.90
2018-05-08T06:50:22.181Z,67.35
2018-05-08T06:51:22.217Z,66.77
2018-05-08T06:52:22.255Z,65.62
2018-05-08T06:53:22.291Z,64.89
2018-05-08T06:54:22.326Z,64.31
2018-05-08T06:55:22.363Z,62.77
2018-05-08T06:56:22.399Z,63.64
2018-05-08T06:57:22.436Z,64.82
2018-05-08T06:58:22.473Z,65.20
2018-05-08T06:59:22.510Z,63.76
2018-05-08T07:00:22.547Z,62.71
2018-05-08T07:01:22.584Z,61.46
2018-05-08T07:02:22.620Z,59.66
2018-05-08T07:03:22.657Z,57.54
2018-05-08T07:04:22.698Z,56.58
2018-05-08T07:05:22.730Z,56.67
2018-05-08T07:07:22.805Z,56.80
2018-05-08T07:08:22.844Z,55.93
2018-05-08T07:09:22.880Z,55.65
2018-05-08T07:10:22.916Z,54.87
2018-05-08T07:11:22.954Z,54.20
2018-05-08T07:12:23.038Z,54.22
2018-05-08T07:13:23.029Z,53.17
2018-05-08T07:14:23.066Z,52.78
2018-05-08T07:15:23.103Z,52.78
2018-05-08T07:16:23.246Z,52.30
2018-05-08T07:17:23.179Z,52.40
2018-05-08T07:18:23.216Z,52.42
2018-05-08T07:19:23.254Z,51.34
2018-05-08T07:20:23.302Z,51.43
2018-05-08T07:21:23.329Z,51.94
2018-05-08T07:22:23.389Z,51.46
2018-05-08T07:23:23.404Z,51.94
2018-05-08T07:24:23.447Z,51.46
2018-05-08T07:25:23.481Z,51.26
2018-05-08T07:26:23.518Z,51.46
2018-05-08T07:27:23.557Z,51.17
2018-05-08T07:28:23.595Z,51.10
2018-05-08T07:29:23.633Z,50.69
2018-05-08T07:30:23.670Z,49.84
2018-05-08T07:31:23.711Z,51.00
2018-05-08T07:32:23.746Z,50.52
2018-05-08T07:33:23.785Z,49.55
2018-05-08T07:34:23.823Z,49.65
2018-05-08T07:35:23.861Z,49.75
2018-05-08T07:36:23.899Z,50.26
2018-05-08T07:37:23.939Z,49.87
2018-05-08T07:38:24.001Z,49.19
2018-05-08T07:39:24.016Z,49.29
2018-05-08T07:40:24.054Z,49.96
2018-05-08T07:41:24.092Z,49.39
2018-05-08T07:42:24.130Z,48.42
2018-05-08T07:43:24.169Z,48.90
2018-05-08T07:44:24.208Z,49.32
2018-05-08T07:45:24.275Z,48.35
2018-05-08T07:46:24.284Z,48.16
2018-05-08T07:47:24.323Z,48.25
2018-05-08T07:48:24.363Z,47.87
2018-05-08T07:49:24.402Z,47.67
2018-05-08T07:50:24.440Z,47.58
2018-05-08T07:51:24.478Z,47.38
2018-05-08T07:52:24.516Z,48.06
2018-05-08T07:53:24.557Z,47.89
2018-05-08T07:54:24.594Z,47.41
2018-05-08T07:55:24.635Z,47.31
2018-05-08T07:56:24.674Z,46.92
2018-05-08T07:57:24.713Z,46.83
2018-05-08T07:58:24.751Z,46.54
2018-05-08T07:59:24.797Z,45.96
2018-05-08T08:00:24.833Z,46.37
2018-05-08T08:01:24.936Z,45.79
2018-05-08T08:02:24.907Z,46.56
2018-05-08T08:03:25.023Z,47.22
2018-05-08T08:04:24.988Z,46.08
2018-05-08T08:05:25.061Z,46.75
2018-05-08T08:06:25.067Z,46.37
2018-05-08T08:07:25.205Z,45.89
2018-05-08T08:08:25.146Z,50.13
2018-05-08T08:09:25.186Z,53.30
2018-05-08T08:10:25.225Z,54.75
2018-05-08T08:11:25.265Z,55.30
2018-05-08T08:12:25.316Z,57.01
2018-05-08T08:13:25.344Z,58.55
2018-05-08T08:14:25.401Z,58.75
2018-05-08T08:15:25.444Z,59.58
2018-05-08T08:16:25.483Z,60.64
2018-05-08T08:17:25.521Z,60.64
2018-05-08T08:18:25.565Z,60.35
2018-05-08T08:19:25.612Z,59.23
2018-05-08T08:20:25.642Z,58.87
2018-05-08T08:22:25.925Z,58.94
2018-05-08T08:23:25.963Z,58.36
2018-05-08T08:24:25.801Z,57.97
2018-05-08T08:25:25.840Z,59.13
2018-05-08T08:26:25.879Z,58.75
2018-05-08T08:27:25.923Z,58.75
2018-05-08T08:28:26.164Z,58.65
2018-05-08T08:29:26.003Z,58.94
2018-05-08T08:30:26.548Z,58.55
2018-05-08T08:32:26.117Z,57.90
2018-05-08T08:33:26.364Z,58.00
2018-05-08T08:41:58.912Z,56.58
2018-05-08T08:42:58.951Z,55.52
2018-05-08T08:43:59.009Z,56.68
2018-05-08T08:44:59.052Z,56.39
2018-05-08T08:45:59.093Z,55.65
2018-05-08T08:46:59.436Z,55.65
2018-05-08T08:47:59.172Z,54.97
2018-05-08T08:48:59.213Z,54.10
2018-05-08T08:49:59.233Z,53.81
2018-05-08T08:50:59.272Z,53.45
2018-05-08T08:51:59.313Z,52.07
2018-05-08T08:52:59.352Z,51.90
2018-05-08T08:53:59.394Z,51.73
2018-05-08T08:54:59.435Z,52.48
2018-05-08T08:55:59.525Z,51.93
2018-05-08T08:56:59.515Z,52.51
2018-05-08T08:58:59.595Z,55.77
2018-05-08T08:59:59.637Z,54.51
2018-05-08T09:00:59.678Z,53.93
2018-05-08T09:01:59.728Z,52.70
2018-05-08T09:02:59.759Z,52.80
2018-05-08T09:03:59.815Z,52.89
2018-05-08T09:04:59.842Z,53.67
2018-05-08T09:05:59.882Z,53.57
2018-05-08T09:06:59.920Z,54.13
2018-05-08T09:07:59.963Z,53.67
2018-05-08T09:09:00.005Z,54.35
2018-05-08T09:10:00.045Z,54.03
2018-05-08T09:11:00.086Z,53.96
2018-05-08T09:12:00.127Z,53.74
2018-05-08T09:13:00.184Z,54.15
2018-05-08T09:14:00.210Z,52.80
2018-05-08T09:15:00.250Z,53.02
2018-05-08T09:16:00.511Z,52.53
2018-05-08T09:17:00.360Z,51.76
2018-05-08T09:18:00.374Z,51.28
2018-05-08T09:19:00.414Z,50.40
2018-05-08T09:20:00.464Z,50.82
2018-05-08T09:21:00.498Z,49.73
2018-05-08T09:22:00.540Z,50.33
2018-05-08T09:23:00.580Z,50.04
2018-05-08T09:24:00.622Z,49.17
2018-05-08T09:25:00.663Z,48.59
2018-05-08T09:26:00.705Z,49.00
2018-05-08T09:27:04.381Z,48.71
2018-05-08T09:28:00.787Z,48.79
2018-05-08T09:29:00.830Z,47.45
2018-05-08T09:30:00.873Z,47.55
2018-05-08T09:31:00.912Z,47.74
2018-05-08T09:32:00.957Z,47.09
2018-05-08T09:33:04.427Z,46.29
2018-05-08T09:34:01.045Z,47.19
2018-05-08T09:35:01.083Z,46.89
2018-05-08T09:36:01.122Z,46.31
2018-05-08T09:37:01.164Z,45.83
2018-05-08T09:38:01.206Z,45.54
2018-05-08T09:39:01.247Z,46.43
2018-05-08T09:40:01.289Z,45.27
2018-05-08T09:41:01.392Z,45.25
2018-05-08T09:42:01.374Z,46.12
2018-05-08T09:43:01.420Z,47.06
2018-05-08T09:44:01.458Z,47.09
2018-05-08T09:45:01.500Z,46.31
2018-05-08T09:47:01.586Z,45.65
2018-05-08T09:48:01.628Z,45.39
2018-05-08T09:49:01.696Z,45.21
2018-05-08T09:50:01.713Z,43.95
2018-05-08T09:51:01.754Z,44.92
2018-05-08T09:52:01.797Z,44.54
2018-05-08T09:53:01.841Z,44.34
2018-05-08T09:54:01.883Z,44.83
2018-05-08T09:55:01.924Z,44.34
2018-05-08T09:56:01.968Z,44.44
2018-05-08T09:57:02.012Z,42.91
2018-05-08T09:58:02.054Z,42.35
2018-05-08T09:59:02.098Z,42.23
2018-05-08T10:00:02.141Z,42.05
2018-05-08T10:01:02.237Z,42.91
2018-05-08T10:02:02.225Z,43.02
2018-05-08T10:03:02.271Z,42.91
2018-05-08T10:04:02.311Z,43.41
2018-05-08T10:05:02.354Z,41.80
2018-05-08T10:06:02.399Z,40.48
2018-05-08T10:07:02.446Z,39.12
2018-05-08T10:08:02.487Z,39.06
2018-05-08T10:09:02.529Z,37.52
2018-05-08T10:10:02.575Z,36.19
2018-05-08T10:11:02.620Z,34.77
2018-05-08T10:12:02.666Z,32.78
2018-05-08T10:13:02.715Z,31.04
2018-05-08T10:14:02.760Z,30.00
2018-05-08T10:15:02.807Z,28.39
2018-05-08T10:16:02.854Z,27.82
2018-05-08T10:17:02.902Z,26.28
2018-05-08T10:18:02.952Z,25.50
2018-05-08T10:19:03.001Z,25.50
2018-05-08T10:20:03.048Z,25.57
2018-05-08T10:21:03.100Z,26.81
2018-05-08T10:22:03.152Z,26.43
2018-05-08T10:23:03.199Z,26.15
2018-05-08T10:24:03.250Z,25.99
2018-05-08T10:25:03.300Z,25.01
2018-05-08T10:26:03.356Z,24.81
2018-05-08T10:27:03.403Z,23.95
2018-05-08T10:28:03.454Z,23.28
2018-05-08T10:29:03.508Z,23.54
2018-05-08T10:30:03.560Z,24.99
2018-05-08T10:31:03.612Z,24.88
2018-05-08T10:32:03.664Z,24.41
2018-05-08T10:33:03.797Z,23.83
2018-05-08T10:34:03.773Z,24.80
2018-05-08T10:35:03.823Z,24.22
2018-05-08T10:36:03.876Z,24.33
2018-05-08T10:37:03.932Z,23.66
2018-05-08T10:38:03.984Z,23.55
2018-05-08T10:39:04.037Z,22.89
2018-05-08T10:40:04.089Z,21.93
2018-05-08T10:41:04.146Z,22.03
2018-05-08T10:42:04.199Z,21.53
2018-05-08T10:43:04.252Z,21.64
2018-05-08T10:44:04.307Z,22.30
2018-05-08T10:45:04.361Z,21.91
2018-05-08T10:46:04.417Z,21.15
2018-05-08T10:47:04.470Z,20.38
2018-05-08T10:48:04.525Z,21.25
2018-05-08T10:49:04.602Z,22.49
2018-05-08T10:50:04.635Z,22.33
2018-05-08T10:51:04.688Z,21.81
2018-05-08T10:52:04.744Z,22.39
2018-05-08T10:53:04.799Z,23.08
2018-05-08T10:54:04.855Z,23.25
2018-05-08T10:55:04.910Z,23.14
2018-05-08T10:56:04.966Z,23.35
2018-05-08T10:57:05.022Z,23.64
2018-05-08T10:58:05.080Z,23.16
2018-05-08T10:59:05.135Z,22.30
2018-05-08T11:00:05.187Z,22.41
2018-05-08T11:01:05.244Z,22.31
2018-05-08T11:02:05.302Z,22.20
2018-05-08T11:03:05.354Z,21.12
2018-05-08T11:04:05.411Z,21.44
2018-05-08T11:05:05.468Z,20.57
2018-05-08T11:06:05.523Z,20.46
2018-05-08T11:07:05.581Z,23.33
2018-05-08T11:08:05.635Z,22.39
2018-05-08T11:09:05.691Z,22.38
2018-05-08T11:10:05.747Z,23.52
2018-05-08T11:11:05.802Z,22.86
2018-05-08T11:12:05.859Z,21.72
2018-05-08T11:13:05.913Z,20.56
2018-05-08T11:14:05.972Z,20.00
2018-05-08T11:15:06.027Z,19.89
2018-05-08T11:16:06.082Z,20.06
2018-05-08T11:17:06.138Z,19.98
2018-05-08T11:18:06.195Z,19.89
2018-05-08T11:19:06.251Z,19.89
2018-05-08T11:20:06.306Z,18.92
2018-05-08T11:21:06.362Z,19.29
2018-05-08T11:22:06.420Z,19.40
2018-05-08T11:23:06.479Z,19.98
2018-05-08T11:24:06.530Z,20.26
2018-05-08T11:25:06.586Z,20.35
2018-05-08T11:26:06.643Z,20.45
2018-05-08T11:27:06.698Z,20.15
2018-05-08T11:28:06.754Z,20.44
2018-05-08T11:29:06.813Z,20.64
2018-05-08T11:30:06.867Z,20.46
2018-05-08T11:31:06.921Z,19.85
2018-05-08T11:32:06.976Z,21.80
2018-05-08T11:33:07.032Z,21.14
2018-05-08T11:34:07.087Z,20.55
2018-05-08T11:35:07.142Z,20.07
2018-05-08T11:36:07.199Z,19.90
2018-05-08T11:37:07.255Z,19.90
2018-05-08T11:38:07.311Z,19.19
2018-05-08T11:39:07.366Z,20.94
2018-05-08T11:40:07.421Z,20.84
2018-05-08T11:41:07.487Z,20.56
2018-05-08T11:42:07.588Z,19.12
2018-05-08T11:43:07.590Z,18.05
2018-05-08T11:44:07.648Z,18.33
2018-05-08T11:45:07.704Z,18.41
2018-05-08T11:46:07.759Z,20.54
2018-05-08T11:47:07.816Z,23.15
2018-05-08T11:48:07.874Z,22.37
2018-05-08T11:49:07.931Z,22.48
2018-05-08T11:50:08.058Z,21.51
2018-05-08T11:51:08.042Z,21.42
2018-05-08T11:52:08.102Z,21.50
2018-05-08T11:53:08.157Z,21.51
2018-05-08T11:54:08.213Z,21.13
2018-05-08T11:55:08.290Z,21.05
2018-05-08T11:56:08.325Z,20.26
2018-05-08T11:58:08.462Z,21.13
2018-05-08T11:59:08.496Z,21.22
2018-05-08T12:00:08.555Z,21.92
2018-05-08T12:01:08.611Z,21.62
2018-05-08T12:02:08.667Z,22.11
2018-05-08T12:03:08.723Z,21.50
2018-05-08T12:04:08.781Z,21.42
2018-05-08T12:05:08.838Z,21.14
2018-05-08T12:06:08.983Z,20.67
2018-05-08T12:07:08.952Z,20.19
2018-05-08T12:08:09.009Z,19.92
2018-05-08T12:09:09.131Z,19.03
2018-05-08T12:10:09.124Z,18.25
2018-05-08T12:11:09.180Z,17.66
2018-05-08T12:12:09.239Z,17.58
2018-05-08T12:13:09.296Z,17.25
2018-05-08T12:14:09.353Z,17.47
2018-05-08T12:15:09.410Z,18.42
2018-05-08T12:16:09.472Z,21.44
2018-05-08T12:17:10.459Z,22.26
2018-05-08T12:19:10.265Z,22.96
2018-05-08T12:21:10.181Z,21.15
2018-05-08T12:24:16.395Z,19.62
2018-05-08T12:25:09.983Z,21.04
2018-05-08T12:26:10.042Z,20.86
2018-05-08T12:27:10.097Z,20.28
2018-05-08T12:28:10.154Z,19.50
2018-05-08T12:29:10.214Z,20.07
2018-05-08T12:30:10.272Z,20.06
2018-05-08T12:31:10.329Z,19.39
2018-05-08T12:32:10.386Z,19.22
2018-05-08T12:33:10.447Z,18.44
2018-05-08T12:34:10.503Z,17.88
2018-05-08T12:35:10.559Z,17.00
2018-05-08T12:36:10.620Z,16.80
2018-05-08T12:37:10.673Z,16.13
2018-05-08T12:38:10.731Z,16.03
2018-05-08T12:39:10.788Z,15.44
2018-05-08T12:40:10.850Z,16.61
2018-05-08T12:41:10.906Z,16.13
2018-05-08T12:42:11.004Z,15.82
2018-05-08T12:43:11.018Z,16.78
2018-05-08T12:44:11.078Z,17.93
2018-05-08T12:45:11.135Z,19.20
2018-05-08T12:46:11.194Z,18.92
2018-05-08T12:47:11.250Z,17.95
2018-05-08T12:48:11.308Z,19.02
2018-05-08T12:49:11.367Z,19.79
2018-05-08T12:50:11.425Z,20.26
2018-05-08T12:51:11.482Z,22.09
2018-05-08T12:52:11.542Z,20.94
2018-05-08T12:53:11.598Z,20.65
2018-05-08T12:54:11.655Z,19.79
2018-05-08T12:55:11.713Z,19.22
2018-05-08T12:56:11.820Z,19.48
2018-05-08T12:57:11.829Z,19.60
2018-05-08T12:58:11.886Z,18.35
2018-05-08T12:59:11.946Z,17.09
2018-05-08T13:00:12.001Z,16.51
2018-05-08T13:01:12.060Z,16.11
2018-05-08T13:02:12.118Z,16.13
2018-05-08T13:03:12.178Z,16.03
2018-05-08T13:04:12.261Z,17.96
2018-05-08T13:05:12.293Z,18.52
2018-05-08T13:06:12.347Z,17.37
2018-05-08T13:07:12.404Z,19.79
2018-05-08T13:08:12.475Z,19.70
2018-05-08T13:09:12.520Z,20.00
2018-05-08T13:10:12.581Z,19.13